sensor_id;sensor_type;location;lat;lon;timestamp;temperature;humidity
54260;DHT22;40172;53.022;7.012;2023-02-28T00:00:25;2.80;99.90
54260;DHT22;40172;53.022;7.012;2023-02-28T00:02:51;2.80;99.90
54260;DHT22;40172;53.022;7.012;2023-02-28T00:05:19;2.80;99.90
54260;DHT22;40172;53.022;7.012;2023-02-28T00:07:45;2.80;99.90
54260;DHT22;40172;53.022;7.012;2023-02-28T00:10:14;2.80;99.90
54260;DHT22;40172;53.022;7.012;2023-02-28T00:12:40;2.90;99.90
54260;DHT22;40172;53.022;7.012;2023-02-28T00:15:07;2.90;99.90
54260;DHT22;40172;53.022;7.012;2023-02-28T00:17:33;2.90;99.90
54260;DHT22;40172;53.022;7.012;2023-02-28T00:19:59;2.90;99.90
54260;DHT22;40172;53.022;7.012;2023-02-28T00:22:27;2.90;99.90
54260;DHT22;40172;53.022;7.012;2023-02-28T00:24:53;2.90;99.90
54260;DHT22;40172;53.022;7.012;2023-02-28T00:27:18;2.90;99.90
54260;DHT22;40172;53.022;7.012;2023-02-28T00:29:46;2.90;99.90
54260;DHT22;40172;53.022;7.012;2023-02-28T00:32:12;2.90;99.90
54260;DHT22;40172;53.022;7.012;2023-02-28T00:34:37;2.90;99.90
54260;DHT22;40172;53.022;7.012;2023-02-28T00:37:07;3.00;99.90
54260;DHT22;40172;53.022;7.012;2023-02-28T00:39:35;3.00;99.90
54260;DHT22;40172;53.022;7.012;2023-02-28T00:42:02;3.00;99.90
54260;DHT22;40172;53.022;7.012;2023-02-28T00:44:28;3.10;99.90
54260;DHT22;40172;53.022;7.012;2023-02-28T00:46:54;3.00;99.90
54260;DHT22;40172;53.022;7.012;2023-02-28T00:49:21;3.10;99.90
54260;DHT22;40172;53.022;7.012;2023-02-28T00:51:46;3.10;99.90
54260;DHT22;40172;53.022;7.012;2023-02-28T00:54:12;3.10;99.90
54260;DHT22;40172;53.022;7.012;2023-02-28T00:56:38;3.00;99.90
54260;DHT22;40172;53.022;7.012;2023-02-28T00:59:03;3.00;99.90
54260;DHT22;40172;53.022;7.012;2023-02-28T01:01:29;3.00;99.90
54260;DHT22;40172;53.022;7.012;2023-02-28T01:03:55;3.00;99.90
54260;DHT22;40172;53.022;7.012;2023-02-28T01:06:20;2.90;99.90
54260;DHT22;40172;53.022;7.012;2023-02-28T01:08:46;3.00;99.90
54260;DHT22;40172;53.022;7.012;2023-02-28T01:11:13;3.00;99.90
54260;DHT22;40172;53.022;7.012;2023-02-28T01:13:40;3.00;99.90
54260;DHT22;40172;53.022;7.012;2023-02-28T01:16:06;2.90;99.90
54260;DHT22;40172;53.022;7.012;2023-02-28T01:18:32;2.90;99.90
54260;DHT22;40172;53.022;7.012;2023-02-28T01:20:57;2.90;99.90
54260;DHT22;40172;53.022;7.012;2023-02-28T01:23:23;3.00;99.90
54260;DHT22;40172;53.022;7.012;2023-02-28T01:25:52;3.00;99.90
54260;DHT22;40172;53.022;7.012;2023-02-28T01:28:18;3.00;99.90
54260;DHT22;40172;53.022;7.012;2023-02-28T01:30:48;2.90;99.90
54260;DHT22;40172;53.022;7.012;2023-02-28T01:33:14;2.90;99.90
54260;DHT22;40172;53.022;7.012;2023-02-28T01:35:40;2.90;99.90
54260;DHT22;40172;53.022;7.012;2023-02-28T01:38:05;2.90;99.90
54260;DHT22;40172;53.022;7.012;2023-02-28T01:40:31;2.80;99.90
54260;DHT22;40172;53.022;7.012;2023-02-28T01:42:57;2.80;99.90
54260;DHT22;40172;53.022;7.012;2023-02-28T01:45:26;2.80;99.90
54260;DHT22;40172;53.022;7.012;2023-02-28T01:47:55;2.80;99.90
54260;DHT22;40172;53.022;7.012;2023-02-28T01:50:26;2.80;99.90
54260;DHT22;40172;53.022;7.012;2023-02-28T01:52:57;2.90;99.90
54260;DHT22;40172;53.022;7.012;2023-02-28T01:55:25;2.80;99.90
54260;DHT22;40172;53.022;7.012;2023-02-28T01:57:56;2.90;99.90
54260;DHT22;40172;53.022;7.012;2023-02-28T02:00:25;2.90;99.90
54260;DHT22;40172;53.022;7.012;2023-02-28T02:02:55;3.00;99.90
54260;DHT22;40172;53.022;7.012;2023-02-28T02:05:24;2.90;99.90
54260;DHT22;40172;53.022;7.012;2023-02-28T02:07:55;2.90;99.90
54260;DHT22;40172;53.022;7.012;2023-02-28T02:13:24;2.90;99.90
54260;DHT22;40172;53.022;7.012;2023-02-28T02:18:47;2.90;99.90
54260;DHT22;40172;53.022;7.012;2023-02-28T02:24:33;2.90;99.90
54260;DHT22;40172;53.022;7.012;2023-02-28T02:27:51;2.90;99.90
54260;DHT22;40172;53.022;7.012;2023-02-28T02:38:53;2.90;99.90
54260;DHT22;40172;53.022;7.012;2023-02-28T02:41:15;3.00;99.90
54260;DHT22;40172;53.022;7.012;2023-02-28T02:44:02;2.90;99.90
54260;DHT22;40172;53.022;7.012;2023-02-28T02:46:33;2.80;99.90
54260;DHT22;40172;53.022;7.012;2023-02-28T02:49:06;2.90;99.90
54260;DHT22;40172;53.022;7.012;2023-02-28T02:51:33;2.80;99.90
54260;DHT22;40172;53.022;7.012;2023-02-28T02:54:10;2.80;99.90
54260;DHT22;40172;53.022;7.012;2023-02-28T02:56:38;2.90;99.90
54260;DHT22;40172;53.022;7.012;2023-02-28T02:59:07;2.90;99.90
54260;DHT22;40172;53.022;7.012;2023-02-28T03:01:38;2.90;99.90
54260;DHT22;40172;53.022;7.012;2023-02-28T03:04:08;2.90;99.90
54260;DHT22;40172;53.022;7.012;2023-02-28T03:06:34;2.90;99.90
54260;DHT22;40172;53.022;7.012;2023-02-28T03:09:21;2.80;99.90
54260;DHT22;40172;53.022;7.012;2023-02-28T03:11:47;2.80;99.90
54260;DHT22;40172;53.022;7.012;2023-02-28T03:14:45;2.80;99.90
54260;DHT22;40172;53.022;7.012;2023-02-28T03:17:49;2.80;99.90
54260;DHT22;40172;53.022;7.012;2023-02-28T03:21:25;2.80;99.90
54260;DHT22;40172;53.022;7.012;2023-02-28T03:23:53;2.80;99.90
54260;DHT22;40172;53.022;7.012;2023-02-28T03:26:26;2.70;99.90
54260;DHT22;40172;53.022;7.012;2023-02-28T03:32:05;2.70;99.90
54260;DHT22;40172;53.022;7.012;2023-02-28T03:35:26;3.50;99.90
54260;DHT22;40172;53.022;7.012;2023-02-28T03:45:20;3.70;99.90
54260;DHT22;40172;53.022;7.012;2023-02-28T03:48:13;4.80;99.90
54260;DHT22;40172;53.022;7.012;2023-02-28T03:51:08;3.40;99.90
54260;DHT22;40172;53.022;7.012;2023-02-28T03:54:04;3.90;99.90
54260;DHT22;40172;53.022;7.012;2023-02-28T03:56:39;4.60;99.90
54260;DHT22;40172;53.022;7.012;2023-02-28T04:02:45;1.80;99.90
54260;DHT22;40172;53.022;7.012;2023-02-28T04:06:23;1.70;99.90
54260;DHT22;40172;53.022;7.012;2023-02-28T04:09:05;3.60;99.90
54260;DHT22;40172;53.022;7.012;2023-02-28T04:12:00;3.90;99.90
54260;DHT22;40172;53.022;7.012;2023-02-28T04:14:47;2.70;99.90
54260;DHT22;40172;53.022;7.012;2023-02-28T04:32:14;3.10;99.90
54260;DHT22;40172;53.022;7.012;2023-02-28T04:35:14;1.60;99.90
54260;DHT22;40172;53.022;7.012;2023-02-28T04:38:34;2.80;99.90
54260;DHT22;40172;53.022;7.012;2023-02-28T04:41:45;4.20;99.90
54260;DHT22;40172;53.022;7.012;2023-02-28T04:48:29;3.20;99.90
54260;DHT22;40172;53.022;7.012;2023-02-28T04:54:07;2.00;99.90
54260;DHT22;40172;53.022;7.012;2023-02-28T05:00:52;2.60;99.90
54260;DHT22;40172;53.022;7.012;2023-02-28T05:07:12;3.10;99.90
54260;DHT22;40172;53.022;7.012;2023-02-28T05:10:12;1.60;99.90
54260;DHT22;40172;53.022;7.012;2023-02-28T05:12:39;1.30;99.90
54260;DHT22;40172;53.022;7.012;2023-02-28T05:15:14;3.60;99.90
54260;DHT22;40172;53.022;7.012;2023-02-28T05:18:13;3.20;99.90
54260;DHT22;40172;53.022;7.012;2023-02-28T05:21:23;2.70;99.90
54260;DHT22;40172;53.022;7.012;2023-02-28T05:24:25;2.40;99.90
54260;DHT22;40172;53.022;7.012;2023-02-28T05:27:25;4.20;99.90
54260;DHT22;40172;53.022;7.012;2023-02-28T05:30:15;4.10;99.90
54260;DHT22;40172;53.022;7.012;2023-02-28T05:32:43;2.30;99.90
54260;DHT22;40172;53.022;7.012;2023-02-28T05:35:30;3.00;99.90
54260;DHT22;40172;53.022;7.012;2023-02-28T05:38:13;2.90;99.90
54260;DHT22;40172;53.022;7.012;2023-02-28T05:40:51;4.00;99.90
54260;DHT22;40172;53.022;7.012;2023-02-28T05:43:33;3.30;99.90
54260;DHT22;40172;53.022;7.012;2023-02-28T05:46:21;4.50;99.90
54260;DHT22;40172;53.022;7.012;2023-02-28T05:55:49;2.60;99.90
54260;DHT22;40172;53.022;7.012;2023-02-28T05:58:31;5.20;99.90
54260;DHT22;40172;53.022;7.012;2023-02-28T06:05:23;2.50;99.90
54260;DHT22;40172;53.022;7.012;2023-02-28T06:08:19;2.50;99.90
54260;DHT22;40172;53.022;7.012;2023-02-28T06:11:08;4.30;99.90
54260;DHT22;40172;53.022;7.012;2023-02-28T06:17:24;2.10;99.90
54260;DHT22;40172;53.022;7.012;2023-02-28T06:20:22;3.90;99.90
54260;DHT22;40172;53.022;7.012;2023-02-28T06:24:13;1.70;99.90
54260;DHT22;40172;53.022;7.012;2023-02-28T06:27:11;1.30;99.90
54260;DHT22;40172;53.022;7.012;2023-02-28T06:30:09;2.20;99.90
54260;DHT22;40172;53.022;7.012;2023-02-28T06:33:18;2.30;99.90
54260;DHT22;40172;53.022;7.012;2023-02-28T06:46:10;0.50;99.90
54260;DHT22;40172;53.022;7.012;2023-02-28T06:49:02;3.70;99.90
54260;DHT22;40172;53.022;7.012;2023-02-28T06:51:47;3.90;99.90
54260;DHT22;40172;53.022;7.012;2023-02-28T07:06:04;0.30;99.90
54260;DHT22;40172;53.022;7.012;2023-02-28T07:09:28;3.00;99.90
54260;DHT22;40172;53.022;7.012;2023-02-28T07:18:25;3.00;99.90
54260;DHT22;40172;53.022;7.012;2023-02-28T07:25:22;6.00;99.90
54260;DHT22;40172;53.022;7.012;2023-02-28T08:00:16;2.20;99.90
54260;DHT22;40172;53.022;7.012;2023-02-28T08:11:46;4.30;99.90
54260;DHT22;40172;53.022;7.012;2023-02-28T08:15:08;3.10;99.90
54260;DHT22;40172;53.022;7.012;2023-02-28T08:22:32;5.40;99.90
54260;DHT22;40172;53.022;7.012;2023-02-28T08:28:54;4.80;99.90
54260;DHT22;40172;53.022;7.012;2023-02-28T08:44:05;3.70;99.90
54260;DHT22;40172;53.022;7.012;2023-02-28T08:46:31;3.90;99.90
54260;DHT22;40172;53.022;7.012;2023-02-28T08:48:57;3.40;99.90
54260;DHT22;40172;53.022;7.012;2023-02-28T08:51:26;4.10;99.90
54260;DHT22;40172;53.022;7.012;2023-02-28T08:53:55;4.10;99.90
54260;DHT22;40172;53.022;7.012;2023-02-28T08:56:21;3.60;99.90
54260;DHT22;40172;53.022;7.012;2023-02-28T08:58:48;3.90;99.90
54260;DHT22;40172;53.022;7.012;2023-02-28T09:01:19;3.20;99.90
54260;DHT22;40172;53.022;7.012;2023-02-28T09:03:46;5.70;99.90
54260;DHT22;40172;53.022;7.012;2023-02-28T09:06:13;3.80;99.90
54260;DHT22;40172;53.022;7.012;2023-02-28T09:08:39;3.90;99.90
54260;DHT22;40172;53.022;7.012;2023-02-28T09:11:05;4.00;99.90
54260;DHT22;40172;53.022;7.012;2023-02-28T09:13:31;4.10;99.90
54260;DHT22;40172;53.022;7.012;2023-02-28T09:15:59;4.30;99.90
54260;DHT22;40172;53.022;7.012;2023-02-28T09:18:25;4.50;99.90
54260;DHT22;40172;53.022;7.012;2023-02-28T09:20:51;4.60;99.90
54260;DHT22;40172;53.022;7.012;2023-02-28T09:23:17;4.80;99.90
54260;DHT22;40172;53.022;7.012;2023-02-28T09:25:48;5.00;99.90
54260;DHT22;40172;53.022;7.012;2023-02-28T09:28:14;5.20;99.90
54260;DHT22;40172;53.022;7.012;2023-02-28T09:30:41;5.40;99.90
54260;DHT22;40172;53.022;7.012;2023-02-28T09:33:07;5.50;99.90
54260;DHT22;40172;53.022;7.012;2023-02-28T09:35:33;5.70;99.90
54260;DHT22;40172;53.022;7.012;2023-02-28T09:37:58;5.80;99.90
54260;DHT22;40172;53.022;7.012;2023-02-28T09:40:26;5.80;99.90
54260;DHT22;40172;53.022;7.012;2023-02-28T09:42:55;5.70;99.90
54260;DHT22;40172;53.022;7.012;2023-02-28T09:45:30;5.80;99.90
54260;DHT22;40172;53.022;7.012;2023-02-28T09:48:06;5.80;99.90
54260;DHT22;40172;53.022;7.012;2023-02-28T09:50:40;5.90;99.90
54260;DHT22;40172;53.022;7.012;2023-02-28T09:53:26;5.90;99.90
54260;DHT22;40172;53.022;7.012;2023-02-28T09:56:25;6.10;99.90
54260;DHT22;40172;53.022;7.012;2023-02-28T10:02:38;6.00;99.90
54260;DHT22;40172;53.022;7.012;2023-02-28T10:05:09;6.00;99.90
54260;DHT22;40172;53.022;7.012;2023-02-28T10:07:49;6.00;99.90
54260;DHT22;40172;53.022;7.012;2023-02-28T10:10:49;6.10;99.90
54260;DHT22;40172;53.022;7.012;2023-02-28T10:13:35;6.20;99.90
54260;DHT22;40172;53.022;7.012;2023-02-28T10:16:13;6.20;99.90
54260;DHT22;40172;53.022;7.012;2023-02-28T10:19:01;6.20;99.90
54260;DHT22;40172;53.022;7.012;2023-02-28T10:21:35;6.20;99.90
54260;DHT22;40172;53.022;7.012;2023-02-28T10:24:27;6.10;99.90
54260;DHT22;40172;53.022;7.012;2023-02-28T10:27:00;6.00;99.90
54260;DHT22;40172;53.022;7.012;2023-02-28T10:29:28;5.90;99.90
54260;DHT22;40172;53.022;7.012;2023-02-28T10:38:18;6.80;99.90
54260;DHT22;40172;53.022;7.012;2023-02-28T10:40:47;6.00;99.90
54260;DHT22;40172;53.022;7.012;2023-02-28T10:45:40;7.70;99.90
54260;DHT22;40172;53.022;7.012;2023-02-28T10:48:50;8.60;99.90
54260;DHT22;40172;53.022;7.012;2023-02-28T10:51:39;8.20;99.90
54260;DHT22;40172;53.022;7.012;2023-02-28T10:54:29;6.80;99.90
54260;DHT22;40172;53.022;7.012;2023-02-28T10:57:28;6.40;99.90
54260;DHT22;40172;53.022;7.012;2023-02-28T11:00:23;8.30;99.90
54260;DHT22;40172;53.022;7.012;2023-02-28T11:02:51;7.00;99.90
54260;DHT22;40172;53.022;7.012;2023-02-28T11:05:32;8.90;99.90
54260;DHT22;40172;53.022;7.012;2023-02-28T11:08:13;7.40;99.90
54260;DHT22;40172;53.022;7.012;2023-02-28T11:10:39;7.60;99.90
54260;DHT22;40172;53.022;7.012;2023-02-28T11:13:17;7.60;99.90
54260;DHT22;40172;53.022;7.012;2023-02-28T11:15:45;7.60;99.90
54260;DHT22;40172;53.022;7.012;2023-02-28T11:18:27;8.00;99.90
54260;DHT22;40172;53.022;7.012;2023-02-28T11:20:56;7.30;99.90
54260;DHT22;40172;53.022;7.012;2023-02-28T11:23:29;7.10;99.90
54260;DHT22;40172;53.022;7.012;2023-02-28T11:25:58;7.00;99.90
54260;DHT22;40172;53.022;7.012;2023-02-28T11:28:31;6.90;99.90
54260;DHT22;40172;53.022;7.012;2023-02-28T11:33:53;6.90;99.90
54260;DHT22;40172;53.022;7.012;2023-02-28T11:36:29;6.90;99.90
54260;DHT22;40172;53.022;7.012;2023-02-28T11:38:58;7.00;99.90
54260;DHT22;40172;53.022;7.012;2023-02-28T11:44:30;7.10;99.90
54260;DHT22;40172;53.022;7.012;2023-02-28T11:47:07;6.90;99.90
54260;DHT22;40172;53.022;7.012;2023-02-28T11:49:45;6.70;99.90
54260;DHT22;40172;53.022;7.012;2023-02-28T11:52:29;6.70;99.90
54260;DHT22;40172;53.022;7.012;2023-02-28T11:55:11;6.60;99.90
54260;DHT22;40172;53.022;7.012;2023-02-28T11:58:00;6.60;99.90
54260;DHT22;40172;53.022;7.012;2023-02-28T12:15:01;6.90;99.90
54260;DHT22;40172;53.022;7.012;2023-02-28T12:28:47;6.70;99.90
54260;DHT22;40172;53.022;7.012;2023-02-28T12:31:23;6.60;99.90
54260;DHT22;40172;53.022;7.012;2023-02-28T12:33:55;6.70;99.90
54260;DHT22;40172;53.022;7.012;2023-02-28T12:36:22;6.80;99.90
54260;DHT22;40172;53.022;7.012;2023-02-28T12:39:13;6.90;99.90
54260;DHT22;40172;53.022;7.012;2023-02-28T12:41:46;7.10;99.90
54260;DHT22;40172;53.022;7.012;2023-02-28T12:44:34;7.20;99.90
54260;DHT22;40172;53.022;7.012;2023-02-28T12:47:08;7.40;99.90
54260;DHT22;40172;53.022;7.012;2023-02-28T12:56:12;7.70;99.90
54260;DHT22;40172;53.022;7.012;2023-02-28T12:59:20;7.70;99.90
54260;DHT22;40172;53.022;7.012;2023-02-28T13:10:20;8.10;99.90
54260;DHT22;40172;53.022;7.012;2023-02-28T13:12:50;8.20;99.90
54260;DHT22;40172;53.022;7.012;2023-02-28T13:17:51;8.50;99.90
54260;DHT22;40172;53.022;7.012;2023-02-28T13:20:20;8.60;99.90
54260;DHT22;40172;53.022;7.012;2023-02-28T13:22:49;8.60;99.90
54260;DHT22;40172;53.022;7.012;2023-02-28T13:28:00;8.60;99.80
54260;DHT22;40172;53.022;7.012;2023-02-28T13:33:33;8.70;98.80
54260;DHT22;40172;53.022;7.012;2023-02-28T13:38:52;8.80;99.80
54260;DHT22;40172;53.022;7.012;2023-02-28T13:44:10;10.00;99.70
54260;DHT22;40172;53.022;7.012;2023-02-28T13:49:19;8.20;99.10
54260;DHT22;40172;53.022;7.012;2023-02-28T13:52:03;7.90;99.60
54260;DHT22;40172;53.022;7.012;2023-02-28T14:00:28;7.60;99.30
54260;DHT22;40172;53.022;7.012;2023-02-28T14:05:41;7.70;99.10
54260;DHT22;40172;53.022;7.012;2023-02-28T14:08:21;7.80;99.80
54260;DHT22;40172;53.022;7.012;2023-02-28T14:10:50;7.90;98.00
54260;DHT22;40172;53.022;7.012;2023-02-28T14:13:37;7.90;98.70
54260;DHT22;40172;53.022;7.012;2023-02-28T14:16:10;8.00;98.90
54260;DHT22;40172;53.022;7.012;2023-02-28T14:18:47;8.10;98.50
54260;DHT22;40172;53.022;7.012;2023-02-28T14:21:30;8.20;98.20
54260;DHT22;40172;53.022;7.012;2023-02-28T14:27:26;8.40;98.30
54260;DHT22;40172;53.022;7.012;2023-02-28T14:30:15;8.50;97.20
54260;DHT22;40172;53.022;7.012;2023-02-28T14:35:45;8.50;98.70
54260;DHT22;40172;53.022;7.012;2023-02-28T14:38:21;8.50;97.80
54260;DHT22;40172;53.022;7.012;2023-02-28T14:40:49;8.50;98.40
54260;DHT22;40172;53.022;7.012;2023-02-28T14:43:25;8.60;98.10
54260;DHT22;40172;53.022;7.012;2023-02-28T14:45:56;8.60;97.50
54260;DHT22;40172;53.022;7.012;2023-02-28T14:48:23;8.50;97.40
54260;DHT22;40172;53.022;7.012;2023-02-28T14:50:53;8.50;97.20
54260;DHT22;40172;53.022;7.012;2023-02-28T14:53:36;9.80;97.80
54260;DHT22;40172;53.022;7.012;2023-02-28T14:56:05;8.40;97.10
54260;DHT22;40172;53.022;7.012;2023-02-28T14:58:34;8.40;97.60
54260;DHT22;40172;53.022;7.012;2023-02-28T15:01:11;8.30;96.80
54260;DHT22;40172;53.022;7.012;2023-02-28T15:03:40;8.00;96.60
54260;DHT22;40172;53.022;7.012;2023-02-28T15:06:22;9.40;96.90
54260;DHT22;40172;53.022;7.012;2023-02-28T15:09:01;7.70;96.40
54260;DHT22;40172;53.022;7.012;2023-02-28T15:11:32;7.80;96.00
54260;DHT22;40172;53.022;7.012;2023-02-28T15:13:57;8.00;96.10
54260;DHT22;40172;53.022;7.012;2023-02-28T15:16:31;8.00;96.00
54260;DHT22;40172;53.022;7.012;2023-02-28T15:19:04;8.10;95.90
54260;DHT22;40172;53.022;7.012;2023-02-28T15:21:34;8.10;95.70
54260;DHT22;40172;53.022;7.012;2023-02-28T15:24:14;8.10;95.70
54260;DHT22;40172;53.022;7.012;2023-02-28T15:26:53;8.20;95.80
54260;DHT22;40172;53.022;7.012;2023-02-28T15:29:26;8.10;96.20
54260;DHT22;40172;53.022;7.012;2023-02-28T15:32:01;8.20;97.20
54260;DHT22;40172;53.022;7.012;2023-02-28T15:34:41;8.10;97.30
54260;DHT22;40172;53.022;7.012;2023-02-28T15:37:27;8.10;97.40
54260;DHT22;40172;53.022;7.012;2023-02-28T15:39:56;8.00;97.30
54260;DHT22;40172;53.022;7.012;2023-02-28T15:42:28;7.90;97.90
54260;DHT22;40172;53.022;7.012;2023-02-28T15:44:53;7.90;97.90
54260;DHT22;40172;53.022;7.012;2023-02-28T15:47:23;7.80;98.00
54260;DHT22;40172;53.022;7.012;2023-02-28T15:50:11;7.70;97.70
54260;DHT22;40172;53.022;7.012;2023-02-28T15:52:42;7.70;97.40
54260;DHT22;40172;53.022;7.012;2023-02-28T15:57:42;7.60;97.60
54260;DHT22;40172;53.022;7.012;2023-02-28T16:00:15;7.50;97.50
54260;DHT22;40172;53.022;7.012;2023-02-28T16:02:41;7.50;97.60
54260;DHT22;40172;53.022;7.012;2023-02-28T16:07:37;7.30;97.70
54260;DHT22;40172;53.022;7.012;2023-02-28T16:10:04;7.30;98.10
54260;DHT22;40172;53.022;7.012;2023-02-28T16:12:34;7.20;98.50
54260;DHT22;40172;53.022;7.012;2023-02-28T16:15:02;7.20;98.30
54260;DHT22;40172;53.022;7.012;2023-02-28T16:17:31;7.10;98.10
54260;DHT22;40172;53.022;7.012;2023-02-28T16:19:58;7.10;97.80
54260;DHT22;40172;53.022;7.012;2023-02-28T16:22:23;7.00;98.00
54260;DHT22;40172;53.022;7.012;2023-02-28T16:24:49;6.90;98.10
54260;DHT22;40172;53.022;7.012;2023-02-28T16:27:31;6.80;98.10
54260;DHT22;40172;53.022;7.012;2023-02-28T16:29:56;6.80;98.00
54260;DHT22;40172;53.022;7.012;2023-02-28T16:32:22;6.70;98.10
54260;DHT22;40172;53.022;7.012;2023-02-28T16:34:48;6.60;98.20
54260;DHT22;40172;53.022;7.012;2023-02-28T16:37:16;6.50;98.50
54260;DHT22;40172;53.022;7.012;2023-02-28T16:39:42;6.40;98.70
54260;DHT22;40172;53.022;7.012;2023-02-28T16:42:20;6.40;98.90
54260;DHT22;40172;53.022;7.012;2023-02-28T16:44:47;6.30;99.10
54260;DHT22;40172;53.022;7.012;2023-02-28T16:47:13;6.30;99.50
54260;DHT22;40172;53.022;7.012;2023-02-28T16:49:39;6.20;99.60
54260;DHT22;40172;53.022;7.012;2023-02-28T16:52:07;6.20;99.50
54260;DHT22;40172;53.022;7.012;2023-02-28T16:54:33;6.10;99.70
54260;DHT22;40172;53.022;7.012;2023-02-28T16:56:59;6.00;99.90
54260;DHT22;40172;53.022;7.012;2023-02-28T16:59:26;5.90;99.90
54260;DHT22;40172;53.022;7.012;2023-02-28T17:01:53;5.70;99.90
54260;DHT22;40172;53.022;7.012;2023-02-28T17:04:18;5.60;99.90
54260;DHT22;40172;53.022;7.012;2023-02-28T17:06:44;5.50;99.90
54260;DHT22;40172;53.022;7.012;2023-02-28T17:09:22;5.30;99.90
54260;DHT22;40172;53.022;7.012;2023-02-28T17:11:48;5.10;99.90
54260;DHT22;40172;53.022;7.012;2023-02-28T17:14:14;5.00;99.90
54260;DHT22;40172;53.022;7.012;2023-02-28T17:16:40;4.80;99.90
54260;DHT22;40172;53.022;7.012;2023-02-28T17:19:12;4.60;99.90
54260;DHT22;40172;53.022;7.012;2023-02-28T17:21:37;4.50;99.90
54260;DHT22;40172;53.022;7.012;2023-02-28T17:24:04;4.40;99.90
54260;DHT22;40172;53.022;7.012;2023-02-28T17:26:30;4.40;99.90
54260;DHT22;40172;53.022;7.012;2023-02-28T17:28:56;4.30;99.90
54260;DHT22;40172;53.022;7.012;2023-02-28T17:31:23;4.20;99.90
54260;DHT22;40172;53.022;7.012;2023-02-28T17:33:50;4.10;99.90
54260;DHT22;40172;53.022;7.012;2023-02-28T17:36:23;4.10;99.90
54260;DHT22;40172;53.022;7.012;2023-02-28T17:38:52;3.90;99.90
54260;DHT22;40172;53.022;7.012;2023-02-28T17:41:18;3.80;99.90
54260;DHT22;40172;53.022;7.012;2023-02-28T17:43:44;3.70;99.90
54260;DHT22;40172;53.022;7.012;2023-02-28T17:46:18;3.60;99.90
54260;DHT22;40172;53.022;7.012;2023-02-28T17:48:46;3.30;99.90
54260;DHT22;40172;53.022;7.012;2023-02-28T17:51:14;3.20;99.90
54260;DHT22;40172;53.022;7.012;2023-02-28T17:53:40;3.10;99.90
54260;DHT22;40172;53.022;7.012;2023-02-28T17:56:15;3.00;99.90
54260;DHT22;40172;53.022;7.012;2023-02-28T17:58:41;2.90;99.90
54260;DHT22;40172;53.022;7.012;2023-02-28T18:01:07;2.90;99.90
54260;DHT22;40172;53.022;7.012;2023-02-28T18:03:33;2.80;99.90
54260;DHT22;40172;53.022;7.012;2023-02-28T18:05:59;2.70;99.90
54260;DHT22;40172;53.022;7.012;2023-02-28T18:08:24;2.60;99.90
54260;DHT22;40172;53.022;7.012;2023-02-28T18:10:51;2.50;99.90
54260;DHT22;40172;53.022;7.012;2023-02-28T18:13:17;2.50;99.90
54260;DHT22;40172;53.022;7.012;2023-02-28T18:15:42;2.40;99.90
54260;DHT22;40172;53.022;7.012;2023-02-28T18:18:08;2.30;99.90
54260;DHT22;40172;53.022;7.012;2023-02-28T18:20:34;2.20;99.90
54260;DHT22;40172;53.022;7.012;2023-02-28T18:23:01;2.10;99.90
54260;DHT22;40172;53.022;7.012;2023-02-28T18:25:26;2.10;99.90
54260;DHT22;40172;53.022;7.012;2023-02-28T18:27:52;2.00;99.90
54260;DHT22;40172;53.022;7.012;2023-02-28T18:30:29;2.00;99.90
54260;DHT22;40172;53.022;7.012;2023-02-28T18:32:59;2.00;99.90
54260;DHT22;40172;53.022;7.012;2023-02-28T18:35:26;1.90;99.90
54260;DHT22;40172;53.022;7.012;2023-02-28T18:38:03;1.80;99.90
54260;DHT22;40172;53.022;7.012;2023-02-28T18:40:29;1.80;99.90
54260;DHT22;40172;53.022;7.012;2023-02-28T18:42:54;2.10;99.90
54260;DHT22;40172;53.022;7.012;2023-02-28T18:45:20;1.80;99.90
54260;DHT22;40172;53.022;7.012;2023-02-28T18:47:45;1.70;99.90
54260;DHT22;40172;53.022;7.012;2023-02-28T18:50:11;1.60;99.90
54260;DHT22;40172;53.022;7.012;2023-02-28T18:52:38;1.50;99.90
54260;DHT22;40172;53.022;7.012;2023-02-28T18:55:04;1.50;99.90
54260;DHT22;40172;53.022;7.012;2023-02-28T18:57:32;1.50;99.90
54260;DHT22;40172;53.022;7.012;2023-02-28T18:59:57;1.50;99.90
54260;DHT22;40172;53.022;7.012;2023-02-28T19:02:23;1.50;99.90
54260;DHT22;40172;53.022;7.012;2023-02-28T19:04:48;1.40;99.90
54260;DHT22;40172;53.022;7.012;2023-02-28T19:07:14;1.30;99.90
54260;DHT22;40172;53.022;7.012;2023-02-28T19:09:40;1.20;99.90
54260;DHT22;40172;53.022;7.012;2023-02-28T19:12:05;1.30;99.90
54260;DHT22;40172;53.022;7.012;2023-02-28T19:14:31;1.30;99.90
54260;DHT22;40172;53.022;7.012;2023-02-28T19:16:56;1.30;99.90
54260;DHT22;40172;53.022;7.012;2023-02-28T19:19:22;1.40;99.90
54260;DHT22;40172;53.022;7.012;2023-02-28T19:21:47;1.40;99.90
54260;DHT22;40172;53.022;7.012;2023-02-28T19:24:13;1.40;99.90
54260;DHT22;40172;53.022;7.012;2023-02-28T19:26:38;1.40;99.90
54260;DHT22;40172;53.022;7.012;2023-02-28T19:29:04;1.30;99.90
54260;DHT22;40172;53.022;7.012;2023-02-28T19:31:30;1.30;99.90
54260;DHT22;40172;53.022;7.012;2023-02-28T19:33:55;1.40;99.90
54260;DHT22;40172;53.022;7.012;2023-02-28T19:36:22;1.30;99.90
54260;DHT22;40172;53.022;7.012;2023-02-28T19:38:48;1.30;99.90
54260;DHT22;40172;53.022;7.012;2023-02-28T19:41:15;1.50;99.90
54260;DHT22;40172;53.022;7.012;2023-02-28T19:43:41;1.20;99.90
54260;DHT22;40172;53.022;7.012;2023-02-28T19:46:07;1.20;99.90
54260;DHT22;40172;53.022;7.012;2023-02-28T19:48:33;1.20;99.90
54260;DHT22;40172;53.022;7.012;2023-02-28T19:51:04;1.20;99.90
54260;DHT22;40172;53.022;7.012;2023-02-28T19:53:40;1.20;99.90
54260;DHT22;40172;53.022;7.012;2023-02-28T19:56:07;1.00;99.90
54260;DHT22;40172;53.022;7.012;2023-02-28T19:58:33;1.00;99.90
54260;DHT22;40172;53.022;7.012;2023-02-28T20:01:19;1.00;99.90
54260;DHT22;40172;53.022;7.012;2023-02-28T20:03:48;1.00;99.90
54260;DHT22;40172;53.022;7.012;2023-02-28T20:06:14;1.20;99.90
54260;DHT22;40172;53.022;7.012;2023-02-28T20:08:40;1.00;99.90
54260;DHT22;40172;53.022;7.012;2023-02-28T20:11:09;1.30;99.90
54260;DHT22;40172;53.022;7.012;2023-02-28T20:13:35;1.00;99.90
54260;DHT22;40172;53.022;7.012;2023-02-28T20:16:04;1.00;99.90
54260;DHT22;40172;53.022;7.012;2023-02-28T20:18:31;1.10;99.90
54260;DHT22;40172;53.022;7.012;2023-02-28T20:20:57;1.00;99.90
54260;DHT22;40172;53.022;7.012;2023-02-28T20:23:22;1.00;99.90
54260;DHT22;40172;53.022;7.012;2023-02-28T20:25:48;1.00;99.90
54260;DHT22;40172;53.022;7.012;2023-02-28T20:28:16;1.30;99.90
54260;DHT22;40172;53.022;7.012;2023-02-28T20:30:43;1.00;99.90
54260;DHT22;40172;53.022;7.012;2023-02-28T20:33:10;0.80;99.90
54260;DHT22;40172;53.022;7.012;2023-02-28T20:35:36;0.70;99.90
54260;DHT22;40172;53.022;7.012;2023-02-28T20:38:01;1.00;99.90
54260;DHT22;40172;53.022;7.012;2023-02-28T20:40:27;0.70;99.90
54260;DHT22;40172;53.022;7.012;2023-02-28T20:42:53;0.90;99.90
54260;DHT22;40172;53.022;7.012;2023-02-28T20:45:19;0.60;99.90
54260;DHT22;40172;53.022;7.012;2023-02-28T20:47:45;0.80;99.90
54260;DHT22;40172;53.022;7.012;2023-02-28T20:50:10;0.70;99.90
54260;DHT22;40172;53.022;7.012;2023-02-28T20:52:36;0.60;99.90